This is the latest recevied weather packets stored in our database for station/object W4NDF-13. If no packets are shown the sender has not sent any weather packets the latest 10 day(s).
| Time | Temp. | Humidity | Pressure | Rain* | Wind** | Luminosity | Snow |
|---|---|---|---|---|---|---|---|
| 1777924117 | 25° C | 39% | 1017.5 hPa | 0 mm | - | 731 W/m² | - |
| 1777923813 | 25° C | 37% | 1017.6 hPa | 0 mm | - | 742 W/m² | - |
| 1777923509 | 25° C | 38% | 1017.7 hPa | 0 mm | - | 752 W/m² | - |
| 1777923207 | 25° C | 39% | 1017.5 hPa | 0 mm | - | 758 W/m² | - |
| 1777922906 | 25° C | 39% | 1017.6 hPa | 0 mm | - | 767 W/m² | - |
| 1777922603 | 25° C | 39% | 1017.8 hPa | 0 mm | - | 786 W/m² | - |
| 1777922302 | 25° C | 40% | 1018 hPa | 0 mm | - | 780 W/m² | - |
| 1777921999 | 25° C | 40% | 1017.7 hPa | 0 mm | - | 783 W/m² | - |
| 1777921694 | 25.56° C | 39% | 1017.8 hPa | 0 mm | - | 790 W/m² | - |
| 1777921390 | 25.56° C | 39% | 1017.9 hPa | 0 mm | - | 793 W/m² | - |
| 1777921087 | 25° C | 41% | 1017.9 hPa | 0 mm | - | 802 W/m² | - |
| 1777920784 | 25.56° C | 41% | 1018 hPa | 0 mm | - | 801 W/m² | - |
| 1777920480 | 25° C | 41% | 1018.2 hPa | 0 mm | - | 807 W/m² | - |
| 1777920176 | 24.44° C | 41% | 1018.3 hPa | 0 mm | - | 815 W/m² | - |
| 1777919872 | 25° C | 41% | 1018.3 hPa | 0 mm | - | 816 W/m² | - |
| 1777919569 | 25° C | 42% | 1018 hPa | 0 mm | - | 824 W/m² | - |
| 1777919267 | 25° C | 40% | 1018.2 hPa | 0 mm | - | 828 W/m² | - |
| 1777918964 | 24.44° C | 43% | 1018.1 hPa | 0 mm | - | 832 W/m² | - |
| 1777918662 | 25° C | 43% | 1018.1 hPa | 0 mm | - | 831 W/m² | - |
| 1777918359 | 24.44° C | 42% | 1018.3 hPa | 0 mm | - | 832 W/m² | - |
| 1777918058 | 24.44° C | 43% | 1018.1 hPa | 0 mm | - | 780 W/m² | - |
| 1777917756 | 25° C | 43% | 1018.2 hPa | 0 mm | - | 849 W/m² | - |
| 1777917453 | 24.44° C | 42% | 1018.4 hPa | 0 mm | - | 815 W/m² | - |
| 1777917150 | 23.89° C | 44% | 1018.3 hPa | 0 mm | - | 847 W/m² | - |
| 1777916848 | 24.44° C | 44% | 1018.4 hPa | 0 mm | - | 847 W/m² | - |
* Rain latest hour (hover to see other rain measurements)
** Current wind speed in m/s (hover to see current wind gust speed)